Time;durP1;ratioP1;P1;durP2;ratioP2;P2;SDS_P1;SDS_P2;PMS_P1;PMS_P2;Temp;Humidity;BMP_temperature;BMP_pressure;BME280_temperature;BME280_humidity;BME280_pressure;Samples;Min_cycle;Max_cycle;Signal;HPM_P1;HPM_P2
2023/12/09 00:00:23;;;;;;;11.10;6.23;;;3.70;99.90;;;4.51;100.00;97860.31;5069076;28;20455;-77
2023/12/09 00:02:52;;;;;;;9.97;6.67;;;3.70;99.90;;;4.48;100.00;97865.81;5067614;28;20531;-78
2023/12/09 00:05:20;;;;;;;10.47;6.17;;;3.70;99.90;;;4.49;100.00;97862.28;5057820;28;20570;-78
2023/12/09 00:07:50;;;;;;;12.63;6.77;;;3.80;99.90;;;4.51;100.00;97868.09;5056551;28;20532;-78
2023/12/09 00:10:19;;;;;;;10.67;6.33;;;3.80;99.90;;;4.53;100.00;97870.53;5056651;28;20496;-78
2023/12/09 00:12:48;;;;;;;9.70;6.73;;;3.80;99.90;;;4.52;100.00;97867.13;5056746;28;20948;-78
2023/12/09 00:15:17;;;;;;;10.37;6.70;;;3.90;99.90;;;4.55;100.00;97874.59;5056776;28;20548;-77
2023/12/09 00:17:45;;;;;;;11.90;6.20;;;3.80;99.90;;;4.54;100.00;97875.56;5057151;28;20524;-77
2023/12/09 00:20:14;;;;;;;11.40;6.40;;;3.90;99.90;;;4.52;100.00;97882.66;5056291;28;20804;-78
2023/12/09 00:22:43;;;;;;;12.03;5.97;;;3.90;99.90;;;4.54;100.00;97885.94;5056087;28;21508;-78
2023/12/09 00:25:12;;;;;;;12.27;6.40;;;3.80;99.90;;;4.55;100.00;97884.94;5056340;28;20476;-78
2023/12/09 00:27:41;;;;;;;12.87;5.30;;;3.80;99.90;;;4.53;100.00;97884.31;5057645;28;20967;-77
2023/12/09 00:30:10;;;;;;;10.93;6.30;;;3.80;99.90;;;4.55;100.00;97879.78;5055329;28;20457;-78
2023/12/09 00:32:38;;;;;;;11.50;6.07;;;3.80;99.90;;;4.55;100.00;97882.34;5056486;28;20463;-78
2023/12/09 00:35:08;;;;;;;9.67;5.90;;;3.90;99.90;;;4.56;100.00;97884.00;5054529;28;20471;-78
2023/12/09 00:37:37;;;;;;;10.73;6.07;;;4.00;99.90;;;4.55;100.00;97879.78;5055698;28;20499;-77
2023/12/09 00:40:07;;;;;;;13.77;6.07;;;3.90;99.90;;;4.58;100.00;97895.00;5054898;28;20508;-78
2023/12/09 00:42:37;;;;;;;9.20;5.13;;;3.90;99.90;;;4.57;100.00;97895.16;5058017;28;20494;-77
2023/12/09 00:45:06;;;;;;;11.70;5.60;;;3.90;99.90;;;4.55;100.00;97882.34;5053546;28;20575;-78
2023/12/09 00:47:35;;;;;;;10.27;4.73;;;3.90;99.90;;;4.57;100.00;97877.84;5056160;28;20547;-78
2023/12/09 00:50:05;;;;;;;9.20;5.40;;;3.80;99.90;;;4.60;100.00;97878.50;5055900;28;20457;-78
2023/12/09 00:52:34;;;;;;;10.47;6.07;;;3.80;99.90;;;4.55;100.00;97866.00;5054739;28;20540;-78
2023/12/09 00:55:03;;;;;;;10.80;5.53;;;3.80;99.90;;;4.51;100.00;97875.84;5055520;28;20477;-77
2023/12/09 00:57:31;;;;;;;8.30;5.30;;;3.80;99.90;;;4.49;100.00;97864.84;5055157;28;20510;-78
2023/12/09 01:00:04;;;;;;;8.10;5.10;;;3.80;99.90;;;4.50;100.00;97868.25;5056237;28;20485;-78
2023/12/09 01:02:32;;;;;;;11.97;5.70;;;3.80;99.90;;;4.49;100.00;97866.63;5053749;28;20556;-78
2023/12/09 01:05:01;;;;;;;6.50;4.70;;;3.90;99.90;;;4.51;100.00;97869.91;5053923;28;20458;-77
2023/12/09 01:07:29;;;;;;;7.90;5.00;;;3.80;99.90;;;4.52;100.00;97872.31;5051658;28;20800;-78
2023/12/09 01:09:58;;;;;;;8.07;5.20;;;3.80;99.90;;;4.52;100.00;97876.69;5055448;28;20825;-78
2023/12/09 01:12:26;;;;;;;6.97;4.53;;;3.70;99.90;;;4.52;100.00;97877.50;5051998;28;20469;-77
2023/12/09 01:14:55;;;;;;;7.53;4.73;;;3.80;99.90;;;4.53;100.00;97863.59;5055895;28;20842;-78
2023/12/09 01:17:25;;;;;;;7.43;4.30;;;3.80;99.90;;;4.52;100.00;97859.38;5053241;28;20495;-77
2023/12/09 01:19:54;;;;;;;9.17;5.20;;;3.80;99.90;;;4.52;100.00;97853.38;5053710;28;20465;-77
2023/12/09 01:22:23;;;;;;;11.90;4.60;;;3.80;99.90;;;4.49;100.00;97854.50;5054564;28;20457;-78
2023/12/09 01:24:52;;;;;;;10.03;4.70;;;3.70;99.90;;;4.45;100.00;97860.94;5055805;28;20539;-78
2023/12/09 01:27:20;;;;;;;9.00;4.33;;;3.70;99.90;;;4.43;100.00;97852.53;5054742;28;20959;-77
2023/12/09 01:29:49;;;;;;;9.30;5.00;;;3.70;99.90;;;4.41;100.00;97854.44;5055354;28;20552;-78
2023/12/09 01:32:17;;;;;;;7.17;4.20;;;3.70;99.90;;;4.38;100.00;97854.75;5056227;28;20485;-78
2023/12/09 01:34:47;;;;;;;10.10;3.80;;;3.60;99.90;;;4.40;100.00;97860.59;5066569;28;20468;-77
2023/12/09 01:37:16;;;;;;;6.83;3.67;;;3.60;99.90;;;4.41;100.00;97864.81;5054848;28;20577;-77
2023/12/09 01:39:44;;;;;;;10.37;4.10;;;3.70;99.90;;;4.41;100.00;97859.63;5052592;28;20468;-77
2023/12/09 01:42:13;;;;;;;8.80;3.80;;;3.70;99.90;;;4.46;100.00;97860.00;5054007;28;20471;-78
2023/12/09 01:44:41;;;;;;;6.27;4.03;;;3.70;99.90;;;4.43;100.00;97867.25;5057004;28;20464;-77
2023/12/09 01:47:10;;;;;;;8.90;3.27;;;3.80;99.90;;;4.38;100.00;97877.22;5055133;28;20472;-78
2023/12/09 01:49:39;;;;;;;7.37;3.57;;;3.70;99.90;;;4.41;100.00;97882.91;5054206;28;20532;-77
2023/12/09 01:52:09;;;;;;;10.77;3.97;;;3.70;99.90;;;4.40;100.00;97881.31;5055164;28;20461;-77
2023/12/09 01:54:38;;;;;;;6.30;4.03;;;3.70;99.90;;;4.43;100.00;97877.59;5055574;28;20457;-77
2023/12/09 01:57:07;;;;;;;6.50;3.43;;;3.70;99.90;;;4.44;100.00;97869.66;5054821;28;20489;-77
2023/12/09 01:59:35;;;;;;;6.23;3.87;;;3.70;99.90;;;4.48;100.00;97870.19;5052944;28;20475;-77
2023/12/09 02:02:04;;;;;;;6.37;3.70;;;3.70;99.90;;;4.48;100.00;97872.75;5054246;28;20490;-77
2023/12/09 02:04:33;;;;;;;5.47;3.40;;;3.70;99.90;;;4.47;100.00;97868.56;5056649;28;20522;-77
2023/12/09 02:07:02;;;;;;;5.60;3.10;;;3.70;99.90;;;4.46;100.00;97870.34;5055396;28;20510;-77
2023/12/09 02:09:33;;;;;;;13.23;4.10;;;3.70;99.90;;;4.44;100.00;97856.72;5054479;28;20469;-77
2023/12/09 02:12:13;;;;;;;5.00;3.40;;;3.70;99.90;;;4.46;100.00;97857.41;5054838;28;21166;-77
2023/12/09 02:14:55;;;;;;;6.70;3.23;;;3.70;99.90;;;4.47;100.00;97858.22;5053969;28;20470;-78
2023/12/09 02:17:35;;;;;;;7.67;3.83;;;3.70;99.90;;;4.47;100.00;97842.69;5054446;28;20566;-77
2023/12/09 02:20:06;;;;;;;6.73;3.00;;;3.70;99.90;;;4.43;100.00;97844.78;5054149;28;20550;-77
2023/12/09 02:22:35;;;;;;;9.30;2.97;;;3.70;99.90;;;4.44;100.00;97841.19;5054617;28;20565;-77
2023/12/09 02:25:06;;;;;;;6.23;3.53;;;3.70;99.90;;;4.43;100.00;97837.00;5054947;28;20456;-77
2023/12/09 02:27:43;;;;;;;5.77;3.20;;;3.70;99.90;;;4.43;100.00;97831.00;5053039;28;20964;-77
2023/12/09 02:30:21;;;;;;;4.87;3.27;;;3.60;99.90;;;4.45;100.00;97832.47;5054507;28;20464;-77
2023/12/09 02:32:54;;;;;;;4.00;2.70;;;3.60;99.90;;;4.46;100.00;97830.69;5052402;28;20457;-77
2023/12/09 02:35:26;;;;;;;6.20;3.33;;;3.70;99.90;;;4.43;100.00;97834.41;5053277;28;20842;-77
2023/12/09 02:37:57;;;;;;;7.07;3.67;;;3.70;99.90;;;4.44;100.00;97833.44;5053575;28;20495;-77
2023/12/09 02:40:29;;;;;;;8.17;3.20;;;3.80;99.90;;;4.45;100.00;97836.84;5052114;28;20464;-77
2023/12/09 02:42:58;;;;;;;4.27;2.50;;;3.70;99.90;;;4.46;100.00;97831.50;5053690;28;20464;-77
2023/12/09 02:45:27;;;;;;;3.50;2.53;;;3.70;99.90;;;4.46;100.00;97828.09;5054810;28;20550;-77
2023/12/09 02:47:55;;;;;;;3.00;2.27;;;3.80;99.90;;;4.46;100.00;97821.16;5053333;28;20463;-77
2023/12/09 02:50:24;;;;;;;3.97;3.30;;;3.70;99.90;;;4.47;100.00;97817.63;5054719;28;20560;-77
2023/12/09 02:52:53;;;;;;;5.60;2.97;;;3.70;99.90;;;4.46;100.00;97805.63;5054537;28;20488;-77
2023/12/09 02:55:21;;;;;;;3.30;2.73;;;3.70;99.90;;;4.47;100.00;97817.63;5053900;28;20469;-77
2023/12/09 02:57:51;;;;;;;10.50;2.90;;;3.70;99.90;;;4.46;100.00;97815.97;5055589;28;21025;-78
2023/12/09 03:00:19;;;;;;;3.70;2.63;;;3.70;99.90;;;4.43;100.00;97826.66;5055454;28;20603;-77
2023/12/09 03:02:48;;;;;;;3.93;2.90;;;3.70;99.90;;;4.44;100.00;97824.88;5052677;28;20507;-77
2023/12/09 03:05:16;;;;;;;3.13;2.13;;;3.70;99.90;;;4.45;100.00;97827.28;5059527;28;20844;-77
2023/12/09 03:07:45;;;;;;;5.40;2.70;;;3.70;99.90;;;4.48;100.00;97828.75;5059819;28;20556;-77
2023/12/09 03:10:13;;;;;;;8.50;3.90;;;3.70;99.90;;;4.50;100.00;97809.53;5052569;28;20717;-77
2023/12/09 03:12:42;;;;;;;3.13;2.50;;;3.80;99.90;;;4.53;100.00;97822.16;5054758;28;20492;-77
2023/12/09 03:15:12;;;;;;;3.60;2.30;;;3.80;99.90;;;4.54;100.00;97813.44;5053283;28;20520;-77
2023/12/09 03:17:42;;;;;;;8.20;3.10;;;3.80;99.90;;;4.53;100.00;97827.34;5055407;28;21074;-78
2023/12/09 03:20:12;;;;;;;3.50;2.60;;;3.70;99.90;;;4.53;100.00;97811.81;5053483;28;20511;-77
2023/12/09 03:22:40;;;;;;;4.33;2.20;;;3.80;99.90;;;4.51;100.00;97802.59;5054778;28;20457;-77
2023/12/09 03:25:09;;;;;;;3.43;2.40;;;3.80;99.90;;;4.51;100.00;97793.00;5053057;28;20461;-78
2023/12/09 03:27:38;;;;;;;3.13;2.63;;;3.80;99.90;;;4.52;100.00;97789.47;5052006;28;20461;-77
2023/12/09 03:30:08;;;;;;;6.13;2.57;;;3.80;99.90;;;4.52;100.00;97794.66;5051261;28;20469;-78
2023/12/09 03:32:40;;;;;;;4.10;2.00;;;3.80;99.90;;;4.54;100.00;97795.31;5053266;28;20518;-78
2023/12/09 03:35:12;;;;;;;3.70;2.30;;;3.80;99.90;;;4.53;100.00;97806.63;5048509;28;20460;-78
2023/12/09 03:37:40;;;;;;;3.50;2.30;;;3.80;99.90;;;4.54;100.00;97790.16;5053999;28;20539;-78
2023/12/09 03:40:11;;;;;;;2.77;2.17;;;3.80;99.90;;;4.54;100.00;97810.84;5054395;28;20468;-78
2023/12/09 03:42:40;;;;;;;2.60;2.20;;;3.70;99.90;;;4.55;100.00;97807.28;5048929;28;20854;-77
2023/12/09 03:45:09;;;;;;;4.73;3.13;;;3.70;99.90;;;4.56;100.00;97797.75;5053080;28;20493;-76
2023/12/09 03:47:37;;;;;;;7.20;2.43;;;3.70;99.90;;;4.54;100.00;97817.81;5050427;28;21003;-78
2023/12/09 03:50:09;;;;;;;2.50;2.27;;;3.80;99.90;;;4.56;100.00;97785.59;5051861;28;20470;-77
2023/12/09 03:52:37;;;;;;;4.10;2.50;;;3.80;99.90;;;4.53;100.00;97835.13;5050650;28;20457;-77
2023/12/09 03:55:06;;;;;;;2.70;2.00;;;3.70;99.90;;;4.56;100.00;97805.50;5052919;28;20964;-78
2023/12/09 03:57:34;;;;;;;4.43;2.60;;;3.70;99.90;;;4.54;100.00;97826.38;5053699;28;20472;-78
2023/12/09 04:00:04;;;;;;;4.10;2.20;;;3.90;99.90;;;4.58;100.00;97809.56;5052679;28;20492;-77
2023/12/09 04:02:33;;;;;;;7.70;2.53;;;3.80;99.90;;;4.57;100.00;97813.13;5051815;28;20543;-77
2023/12/09 04:05:01;;;;;;;4.53;2.23;;;3.80;99.90;;;4.62;100.00;97809.28;5052530;28;20456;-78
2023/12/09 04:07:32;;;;;;;2.80;2.43;;;3.80;99.90;;;4.58;100.00;97798.41;5052048;28;20567;-78
2023/12/09 04:10:01;;;;;;;4.17;2.67;;;3.90;99.90;;;4.60;100.00;97801.66;5054058;28;21017;-77
2023/12/09 04:12:30;;;;;;;3.67;2.50;;;3.90;99.90;;;4.58;100.00;97793.22;5054566;28;20464;-78
2023/12/09 04:14:59;;;;;;;2.63;2.07;;;3.90;99.90;;;4.60;100.00;97793.88;5053521;28;20863;-77
2023/12/09 04:17:27;;;;;;;5.40;2.40;;;3.80;99.90;;;4.62;100.00;97793.75;5052984;28;20469;-78
2023/12/09 04:19:56;;;;;;;3.33;1.93;;;3.90;99.90;;;4.58;100.00;97782.88;5052786;28;20492;-78
2023/12/09 04:22:24;;;;;;;3.07;2.77;;;3.90;99.90;;;4.60;100.00;97786.09;5051790;28;20588;-78
2023/12/09 04:24:55;;;;;;;4.97;2.23;;;3.80;99.90;;;4.58;100.00;97785.47;5052391;28;20460;-78
2023/12/09 04:27:23;;;;;;;5.33;2.80;;;3.80;99.90;;;4.60;100.00;97780.94;5053114;28;20461;-78
2023/12/09 04:29:52;;;;;;;3.40;2.30;;;3.80;99.90;;;4.58;100.00;97773.31;5053428;28;20526;-78
2023/12/09 04:32:21;;;;;;;3.53;2.23;;;3.80;99.90;;;4.60;100.00;97772.34;5053135;28;20519;-78
2023/12/09 04:34:49;;;;;;;3.10;2.30;;;3.80;99.90;;;4.62;100.00;97767.84;5051719;28;20468;-77
2023/12/09 04:37:17;;;;;;;3.60;2.60;;;3.80;99.90;;;4.60;100.00;97756.81;5064465;28;20838;-78
2023/12/09 04:39:46;;;;;;;4.20;2.20;;;3.70;99.90;;;4.59;100.00;97758.59;5054605;28;20506;-77
2023/12/09 04:42:16;;;;;;;2.97;2.10;;;3.70;99.90;;;4.62;100.00;97749.72;5051305;28;21091;-79
2023/12/09 04:44:45;;;;;;;4.53;2.20;;;3.80;99.90;;;4.60;100.00;97743.88;5051612;28;21068;-79
2023/12/09 04:47:13;;;;;;;4.03;2.50;;;3.80;99.90;;;4.59;100.00;97750.81;5056260;28;20850;-77
2023/12/09 04:49:42;;;;;;;3.90;2.70;;;3.80;99.90;;;4.58;100.00;97737.06;5053413;28;20461;-78
2023/12/09 04:52:11;;;;;;;6.20;2.50;;;3.80;99.90;;;4.57;100.00;97734.66;5055928;28;20457;-78
2023/12/09 04:54:40;;;;;;;3.93;2.77;;;3.80;99.90;;;4.57;100.00;97738.03;5052371;28;20488;-77
2023/12/09 04:57:08;;;;;;;3.90;2.57;;;3.80;99.90;;;4.57;100.00;97738.03;5057320;28;20779;-77
2023/12/09 04:59:40;;;;;;;3.43;2.60;;;3.80;99.90;;;4.60;100.00;97742.09;5052775;28;21631;-78
2023/12/09 05:02:08;;;;;;;2.83;2.27;;;3.80;99.90;;;4.61;100.00;97735.13;5055659;28;20465;-78
2023/12/09 05:04:37;;;;;;;3.97;2.07;;;3.80;99.90;;;4.60;100.00;97729.16;5053750;28;20556;-78
2023/12/09 05:07:05;;;;;;;3.23;2.00;;;3.80;99.90;;;4.61;100.00;97729.97;5051543;28;20481;-77
2023/12/09 05:09:34;;;;;;;6.87;3.00;;;3.80;99.90;;;4.63;100.00;97730.59;5052361;28;20465;-77
2023/12/09 05:12:03;;;;;;;5.33;2.60;;;3.90;99.90;;;4.63;100.00;97712.47;5055362;28;20457;-78
2023/12/09 05:14:31;;;;;;;14.53;3.97;;;3.90;99.90;;;4.62;100.00;97721.25;5051916;28;20468;-78
2023/12/09 05:17:01;;;;;;;5.07;3.00;;;3.90;99.90;;;4.63;100.00;97712.47;5053759;28;20560;-77
2023/12/09 05:19:30;;;;;;;4.40;2.70;;;3.90;99.90;;;4.61;100.00;97711.84;5054522;28;20497;-77
2023/12/09 05:21:59;;;;;;;5.73;3.10;;;3.90;99.90;;;4.63;100.00;97707.31;5053092;28;20725;-77
2023/12/09 05:24:28;;;;;;;4.77;2.93;;;3.90;99.90;;;4.62;100.00;97703.13;5057102;28;20461;-77
2023/12/09 05:26:57;;;;;;;7.30;2.97;;;3.90;99.90;;;4.62;100.00;97701.31;5058293;28;20472;-77
2023/12/09 05:29:26;;;;;;;5.37;2.83;;;3.90;99.90;;;4.63;100.00;97691.75;5057916;28;20465;-77
2023/12/09 05:31:54;;;;;;;6.10;3.00;;;3.80;99.90;;;4.62;100.00;97700.53;5056330;28;20464;-77
2023/12/09 05:34:24;;;;;;;5.23;3.03;;;3.80;99.90;;;4.65;100.00;97697.63;5059167;28;20465;-77
2023/12/09 05:36:53;;;;;;;5.03;2.70;;;3.80;99.90;;;4.63;100.00;97691.75;5059319;28;20544;-77
2023/12/09 05:39:22;;;;;;;5.63;2.70;;;3.80;99.90;;;4.61;100.00;97689.34;5058434;28;20495;-77
2023/12/09 05:41:51;;;;;;;4.90;2.90;;;3.80;99.90;;;4.58;100.00;97687.88;5059473;28;20559;-77
2023/12/09 05:44:19;;;;;;;4.17;2.50;;;3.80;99.90;;;4.60;100.00;97686.91;5058664;28;20461;-77
2023/12/09 05:46:48;;;;;;;4.57;2.77;;;3.90;99.90;;;4.62;100.00;97680.59;5057424;28;20468;-77
2023/12/09 05:49:16;;;;;;;4.90;2.80;;;3.90;99.90;;;4.61;100.00;97683.34;5059077;28;20469;-77
2023/12/09 05:51:46;;;;;;;3.07;2.03;;;3.80;99.90;;;4.61;100.00;97671.22;5057404;28;20475;-77
2023/12/09 05:54:15;;;;;;;6.07;2.63;;;3.90;99.90;;;4.64;100.00;97667.50;5059099;28;20983;-77
2023/12/09 05:56:49;;;;;;;5.30;3.23;;;3.90;99.90;;;4.63;100.00;97668.47;5057110;28;20483;-77
2023/12/09 05:59:18;;;;;;;4.03;2.30;;;3.90;99.90;;;4.65;100.00;97669.13;5057478;28;20491;-77
2023/12/09 06:01:46;;;;;;;4.33;2.17;;;3.90;99.90;;;4.65;100.00;97666.53;5056069;28;20473;-77
2023/12/09 06:04:15;;;;;;;4.07;2.83;;;3.90;99.90;;;4.66;100.00;97681.91;5056836;28;20464;-77
2023/12/09 06:06:43;;;;;;;6.53;2.87;;;3.90;99.90;;;4.65;100.00;97674.31;5057174;28;20494;-77
2023/12/09 06:09:13;;;;;;;11.40;2.83;;;4.00;99.90;;;4.66;100.00;97676.72;5066044;28;20457;-78
2023/12/09 06:11:42;;;;;;;4.10;2.90;;;4.00;99.90;;;4.69;100.00;97675.59;5055994;28;20460;-77
2023/12/09 06:14:10;;;;;;;3.40;2.40;;;4.00;99.90;;;4.65;100.00;97674.31;5056333;28;20456;-78
2023/12/09 06:16:39;;;;;;;4.80;2.53;;;3.90;99.90;;;4.58;100.00;97671.56;5057284;28;20464;-77
2023/12/09 06:19:07;;;;;;;4.13;2.53;;;3.80;99.90;;;4.63;100.00;97665.88;5056700;28;20472;-77
2023/12/09 06:21:36;;;;;;;3.63;2.37;;;3.80;99.90;;;4.62;100.00;97662.47;5056452;28;20471;-77
2023/12/09 06:24:05;;;;;;;6.73;3.07;;;3.90;99.90;;;4.65;100.00;97654.38;5055532;28;20473;-77
2023/12/09 06:26:35;;;;;;;3.43;2.80;;;3.90;99.90;;;4.63;100.00;97658.91;5058407;28;20456;-77
2023/12/09 06:29:04;;;;;;;4.80;2.60;;;3.90;99.90;;;4.64;100.00;97662.31;5055641;28;20472;-77
2023/12/09 06:31:32;;;;;;;2.83;2.43;;;3.90;99.90;;;4.60;100.00;97674.78;5053350;28;20479;-77
2023/12/09 06:34:01;;;;;;;4.73;2.60;;;3.80;99.90;;;4.60;100.00;97671.38;5055891;28;20468;-77
2023/12/09 06:36:29;;;;;;;6.00;2.30;;;3.90;99.90;;;4.62;100.00;97677.22;5057629;28;20471;-77
2023/12/09 06:38:58;;;;;;;4.00;2.40;;;3.90;99.90;;;4.65;100.00;97677.69;5055593;28;20542;-77
2023/12/09 06:41:27;;;;;;;2.40;2.17;;;3.90;99.90;;;4.66;100.00;97679.31;5055214;28;20500;-77
2023/12/09 06:43:57;;;;;;;3.17;2.40;;;3.90;99.90;;;4.69;100.00;97668.63;5054510;28;20460;-77
2023/12/09 06:46:26;;;;;;;3.80;2.70;;;4.00;99.90;;;4.62;100.00;97675.41;5056474;28;20461;-77
2023/12/09 06:48:55;;;;;;;2.90;1.87;;;3.90;99.90;;;4.65;100.00;97674.31;5055842;28;20538;-77
2023/12/09 06:51:23;;;;;;;13.23;3.80;;;3.90;99.90;;;4.65;100.00;97667.31;5054785;28;20536;-77
2023/12/09 06:53:52;;;;;;;5.20;2.20;;;3.90;99.90;;;4.65;100.00;97662.16;5055507;28;20556;-77
2023/12/09 06:56:22;;;;;;;5.70;2.40;;;3.90;99.90;;;4.64;100.00;97667.50;5056774;28;20482;-77
2023/12/09 06:58:51;;;;;;;4.67;2.70;;;3.90;99.90;;;4.63;100.00;97663.28;5056691;28;20456;-77
2023/12/09 07:01:27;;;;;;;5.70;2.63;;;3.80;99.90;;;4.58;100.00;97668.97;5054160;28;20590;-78
2023/12/09 07:03:55;;;;;;;5.33;2.70;;;3.80;99.90;;;4.58;100.00;97659.38;5056478;28;20473;-77
2023/12/09 07:06:26;;;;;;;4.27;2.37;;;3.80;99.90;;;4.60;100.00;97671.38;5055385;28;20480;-77
2023/12/09 07:08:57;;;;;;;9.87;2.67;;;3.90;99.90;;;4.58;100.00;97671.56;5055608;28;20464;-77
2023/12/09 07:11:26;;;;;;;7.30;2.30;;;3.80;99.90;;;4.60;100.00;97668.78;5055673;28;20470;-77
2023/12/09 07:13:55;;;;;;;4.20;2.47;;;3.80;99.90;;;4.57;100.00;97662.97;5057203;28;21375;-77
2023/12/09 07:16:25;;;;;;;3.63;2.30;;;3.90;99.90;;;4.58;100.00;97674.91;5054474;28;20859;-77
2023/12/09 07:18:58;;;;;;;3.63;2.30;;;3.80;99.90;;;4.63;100.00;97673.66;5057102;28;20464;-77
2023/12/09 07:21:28;;;;;;;2.97;2.40;;;3.90;99.90;;;4.63;100.00;97676.22;5055375;28;21017;-77
2023/12/09 07:23:57;;;;;;;3.87;2.60;;;3.90;99.90;;;4.65;100.00;97669.13;5056456;28;21014;-77
2023/12/09 07:26:26;;;;;;;4.37;2.50;;;3.90;99.90;;;4.63;100.00;97665.88;5056828;28;21104;-77
2023/12/09 07:28:54;;;;;;;3.30;2.60;;;4.00;99.90;;;4.67;100.00;97655.06;5057291;28;20470;-77
2023/12/09 07:31:24;;;;;;;4.30;2.70;;;4.00;99.90;;;4.71;100.00;97645.19;5053985;28;20501;-77
2023/12/09 07:33:53;;;;;;;5.67;3.10;;;4.10;99.90;;;4.72;100.00;97659.75;5054039;28;20816;-77
2023/12/09 07:36:21;;;;;;;4.43;2.33;;;4.10;99.90;;;4.73;100.00;97661.34;5053378;28;20488;-77
2023/12/09 07:38:50;;;;;;;3.00;2.60;;;4.10;99.90;;;4.75;100.00;97644.72;5057052;28;20453;-77
2023/12/09 07:41:19;;;;;;;8.27;3.57;;;4.10;99.90;;;4.73;100.00;97630.28;5062035;28;20852;-77
2023/12/09 07:43:47;;;;;;;5.50;3.10;;;4.10;99.90;;;4.76;100.00;97619.59;5056239;28;20476;-77
2023/12/09 07:46:16;;;;;;;9.20;3.50;;;4.10;99.90;;;4.78;100.00;97607.31;5053377;28;20461;-77
2023/12/09 07:48:46;;;;;;;7.90;4.07;;;4.10;99.90;;;4.80;100.00;97598.41;5054266;28;20473;-77
2023/12/09 07:51:14;;;;;;;4.33;2.73;;;4.10;99.90;;;4.84;100.00;97598.88;5055660;28;20837;-77
2023/12/09 07:53:43;;;;;;;7.13;2.93;;;4.10;99.90;;;4.78;100.00;97605.53;5054123;28;20464;-77
2023/12/09 07:56:12;;;;;;;10.20;4.00;;;4.10;99.90;;;4.81;100.00;97604.41;5056453;28;20480;-77
2023/12/09 07:58:40;;;;;;;3.40;2.90;;;4.10;99.90;;;4.83;100.00;97590.31;5055811;28;20538;-76
2023/12/09 08:01:09;;;;;;;7.80;4.60;;;4.10;99.90;;;4.85;100.00;97601.34;5054398;28;20504;-77
2023/12/09 08:03:40;;;;;;;7.73;3.20;;;4.20;99.90;;;4.89;100.00;97594.06;5055679;28;20491;-77
2023/12/09 08:06:11;;;;;;;8.33;4.33;;;4.20;99.90;;;4.91;100.00;97595.50;5054692;28;20578;-77
2023/12/09 08:08:40;;;;;;;9.80;3.53;;;4.20;99.90;;;4.94;100.00;97596.94;5054942;28;20457;-77
2023/12/09 08:11:09;;;;;;;6.80;3.97;;;4.40;99.90;;;4.97;100.00;97601.78;5053441;28;21040;-77
2023/12/09 08:13:38;;;;;;;8.63;3.87;;;4.40;99.90;;;4.99;100.00;97594.69;5054381;28;20479;-78
2023/12/09 08:16:08;;;;;;;8.20;4.80;;;4.40;99.90;;;5.02;100.00;97589.19;5054496;28;20573;-78
2023/12/09 08:18:37;;;;;;;8.27;4.40;;;4.60;99.90;;;5.07;100.00;97576.53;5053635;28;21010;-77
2023/12/09 08:21:07;;;;;;;25.13;4.63;;;4.50;99.90;;;5.09;100.00;97582.38;5056262;28;20492;-77
2023/12/09 08:23:38;;;;;;;9.40;4.50;;;4.60;99.90;;;5.14;100.00;97582.66;5058410;28;20471;-78
2023/12/09 08:26:07;;;;;;;8.47;4.57;;;4.60;99.90;;;5.18;100.00;97573.59;5059402;28;20469;-78
2023/12/09 08:28:36;;;;;;;14.73;4.90;;;4.60;99.90;;;5.21;100.00;97562.91;5057276;28;20469;-78
2023/12/09 08:31:06;;;;;;;10.03;4.50;;;4.60;99.90;;;5.25;100.00;97574.56;5057244;28;20465;-78
2023/12/09 08:33:35;;;;;;;8.67;4.67;;;4.60;99.90;;;5.27;100.00;97577.00;5054319;28;20459;-78
2023/12/09 08:36:05;;;;;;;5.50;3.63;;;4.60;99.90;;;5.32;100.00;97565.16;5057161;28;20549;-78
2023/12/09 08:38:33;;;;;;;15.57;4.30;;;4.70;99.90;;;5.35;100.00;97559.63;5054927;28;20555;-78
2023/12/09 08:41:03;;;;;;;13.13;4.00;;;4.80;99.90;;;5.41;100.00;97551.22;5056657;28;20496;-78
2023/12/09 08:43:32;;;;;;;7.90;4.30;;;4.90;99.90;;;5.46;100.00;97548.09;5057879;28;20580;-79
2023/12/09 08:46:00;;;;;;;6.60;2.57;;;5.00;99.90;;;5.54;100.00;97535.94;5059375;28;20470;-78
2023/12/09 08:48:29;;;;;;;11.40;3.40;;;5.00;99.90;;;5.59;100.00;97531.03;5059153;28;20465;-78
2023/12/09 08:50:58;;;;;;;7.17;2.60;;;5.20;99.90;;;5.66;100.00;97533.75;5058134;28;21009;-78
2023/12/09 08:53:27;;;;;;;8.70;2.87;;;5.20;99.90;;;5.71;100.00;97533.25;5056903;28;20549;-78
2023/12/09 08:55:55;;;;;;;10.33;2.07;;;5.30;99.90;;;5.76;100.00;97521.38;5058807;28;20877;-79
2023/12/09 08:58:25;;;;;;;5.13;2.50;;;5.30;99.90;;;5.80;100.00;97519.25;5058588;28;20457;-78
2023/12/09 09:00:54;;;;;;;15.03;3.23;;;5.40;99.90;;;5.86;100.00;97524.63;5058118;28;20523;-78
2023/12/09 09:03:24;;;;;;;12.80;3.57;;;5.40;99.90;;;5.91;100.00;97513.72;5058045;28;20539;-78
2023/12/09 09:05:53;;;;;;;11.50;2.90;;;5.50;99.90;;;5.96;100.00;97514.03;5057129;28;20460;-79
2023/12/09 09:08:21;;;;;;;19.07;4.37;;;5.60;99.90;;;6.02;100.00;97502.97;5057944;28;20460;-79
2023/12/09 09:10:50;;;;;;;11.50;3.97;;;5.70;99.90;;;6.07;100.00;97500.66;5057639;28;20472;-79
2023/12/09 09:13:19;;;;;;;9.60;4.57;;;5.70;99.90;;;6.11;100.00;97504.50;5067001;28;20456;-78
2023/12/09 09:15:51;;;;;;;14.30;4.43;;;5.60;99.90;;;6.17;100.00;97524.59;5061303;28;20475;-78
2023/12/09 09:18:21;;;;;;;9.30;3.57;;;5.70;99.90;;;6.22;100.00;97518.88;5059014;28;20461;-78
2023/12/09 09:20:50;;;;;;;8.90;3.77;;;5.80;99.90;;;6.26;100.00;97523.56;5058370;28;20937;-78
2023/12/09 09:23:19;;;;;;;11.87;4.00;;;5.80;99.90;;;6.28;100.00;97520.81;5056790;28;20958;-78
2023/12/09 09:25:48;;;;;;;9.23;3.43;;;5.90;99.90;;;6.31;100.00;97520.47;5057579;28;20465;-78
2023/12/09 09:28:17;;;;;;;9.37;3.83;;;6.00;99.90;;;6.34;100.00;97528.72;5055766;28;20972;-78
2023/12/09 09:30:44;;;;;;;14.73;3.70;;;6.00;99.90;;;6.37;100.00;97533.56;5056716;28;21010;-78
2023/12/09 09:33:15;;;;;;;14.53;4.00;;;6.00;99.90;;;6.40;100.00;97535.81;5056993;28;20831;-78
2023/12/09 09:35:46;;;;;;;9.27;3.60;;;6.00;99.90;;;6.44;100.00;97528.47;5056397;28;20461;-78
2023/12/09 09:38:14;;;;;;;13.57;3.73;;;6.00;99.90;;;6.46;100.00;97516.91;5057164;28;20468;-78
2023/12/09 09:40:43;;;;;;;6.93;3.13;;;6.00;99.90;;;6.48;100.00;97512.38;5057364;28;20472;-78
2023/12/09 09:43:21;;;;;;;11.47;3.50;;;6.00;99.90;;;6.50;100.00;97500.00;5055818;28;20572;-79
2023/12/09 09:45:52;;;;;;;9.47;3.73;;;6.10;99.90;;;6.52;100.00;97498.06;5055877;28;20449;-78
2023/12/09 09:48:25;;;;;;;11.50;3.33;;;6.10;99.90;;;6.54;100.00;97496.09;5056438;28;20484;-78
2023/12/09 09:51:00;;;;;;;17.17;3.40;;;6.10;99.90;;;6.56;100.00;97493.31;5058215;28;20553;-79
2023/12/09 09:53:37;;;;;;;10.47;3.70;;;6.10;99.90;;;6.57;100.00;97490.53;5056392;28;20466;-78
2023/12/09 09:56:09;;;;;;;25.37;4.17;;;6.10;99.90;;;6.58;100.00;97486.97;5058124;28;20468;-78
2023/12/09 09:58:38;;;;;;;8.33;3.20;;;6.10;99.90;;;6.59;100.00;97488.56;5056678;28;20539;-78
2023/12/09 10:01:11;;;;;;;6.67;3.30;;;6.10;99.90;;;6.61;100.00;97485.00;5055393;28;20522;-78
2023/12/09 10:03:42;;;;;;;19.63;3.60;;;6.20;99.90;;;6.62;100.00;97481.41;5056572;28;20539;-79
2023/12/09 10:06:11;;;;;;;7.40;2.90;;;6.20;99.90;;;6.62;100.00;97471.03;5056678;28;20485;-80
2023/12/09 10:08:40;;;;;;;7.77;2.77;;;6.30;99.90;;;6.65;100.00;97460.28;5056005;28;20460;-78
2023/12/09 10:11:08;;;;;;;13.83;2.80;;;6.20;99.90;;;6.62;100.00;97452.84;5056424;28;20586;-78
2023/12/09 10:13:37;;;;;;;7.40;2.80;;;6.30;99.90;;;6.62;100.00;97451.06;5057422;28;20665;-79
2023/12/09 10:16:07;;;;;;;7.40;2.30;;;6.20;99.90;;;6.64;100.00;97435.28;5055577;28;20479;-79
2023/12/09 10:18:37;;;;;;;9.60;3.30;;;6.20;99.90;;;6.67;100.00;97422.75;5055942;28;20515;-78
2023/12/09 10:21:09;;;;;;;4.67;2.50;;;6.30;99.90;;;6.64;100.00;97424.88;5055319;28;20500;-78
2023/12/09 10:23:38;;;;;;;12.70;3.10;;;6.20;99.90;;;6.66;100.00;97421.16;5056121;28;20532;-78
2023/12/09 10:26:09;;;;;;;10.40;2.63;;;6.20;99.90;;;6.69;100.00;97419.97;5054216;28;20476;-78
2023/12/09 10:28:37;;;;;;;12.07;3.07;;;6.20;99.90;;;6.71;100.00;97408.41;5057689;28;20457;-78
2023/12/09 10:31:08;;;;;;;11.13;2.40;;;6.20;99.90;;;6.71;100.00;97385.03;5057248;28;20469;-78
2023/12/09 10:33:37;;;;;;;10.80;3.20;;;6.20;99.90;;;6.74;100.00;97368.28;5054648;28;20461;-78